sensor_id;sensor_type;location;lat;lon;timestamp;pressure;altitude;pressure_sealevel;temperature;humidity
82986;BME280;72786;53.546;9.910;2023-11-21T00:01:03;100328.00;;;9.87;96.75
82986;BME280;72786;53.546;9.910;2023-11-21T00:03:31;100370.94;;;10.08;96.57
82986;BME280;72786;53.546;9.910;2023-11-21T00:05:57;100359.09;;;10.00;95.78
82986;BME280;72786;53.546;9.910;2023-11-21T00:08:24;100417.19;;;10.28;96.65
82986;BME280;72786;53.546;9.910;2023-11-21T00:10:50;100404.19;;;10.16;97.57
82986;BME280;72786;53.546;9.910;2023-11-21T00:13:17;100381.44;;;10.01;96.98
82986;BME280;72786;53.546;9.910;2023-11-21T00:15:44;100402.47;;;10.07;95.82
82986;BME280;72786;53.546;9.910;2023-11-21T00:18:10;100451.16;;;10.25;95.41
82986;BME280;72786;53.546;9.910;2023-11-21T00:20:37;100414.97;;;9.94;94.22
82986;BME280;72786;53.546;9.910;2023-11-21T00:23:04;100457.69;;;10.12;95.66
82986;BME280;72786;53.546;9.910;2023-11-21T00:25:30;100411.75;;;9.86;95.43
82986;BME280;72786;53.546;9.910;2023-11-21T00:27:58;100424.16;;;9.82;95.02
82986;BME280;72786;53.546;9.910;2023-11-21T00:30:25;100470.44;;;10.02;95.93
82986;BME280;72786;53.546;9.910;2023-11-21T00:32:51;100460.34;;;9.85;95.95
82986;BME280;72786;53.546;9.910;2023-11-21T00:35:18;100470.09;;;9.89;95.60
82986;BME280;72786;53.546;9.910;2023-11-21T00:37:45;100448.97;;;9.73;95.12
82986;BME280;72786;53.546;9.910;2023-11-21T00:40:12;100483.56;;;9.86;96.50
82986;BME280;72786;53.546;9.910;2023-11-21T00:42:38;100414.31;;;9.40;95.94
82986;BME280;72786;53.546;9.910;2023-11-21T00:45:06;100497.84;;;9.75;95.38
82986;BME280;72786;53.546;9.910;2023-11-21T00:47:33;100483.44;;;9.67;95.02
82986;BME280;72786;53.546;9.910;2023-11-21T00:50:00;100489.78;;;9.62;94.84
82986;BME280;72786;53.546;9.910;2023-11-21T00:52:26;100437.56;;;9.33;94.65
82986;BME280;72786;53.546;9.910;2023-11-21T00:54:53;100469.28;;;9.43;95.33
82986;BME280;72786;53.546;9.910;2023-11-21T00:57:19;100451.50;;;9.26;95.63
82986;BME280;72786;53.546;9.910;2023-11-21T00:59:46;100509.75;;;9.56;94.52
82986;BME280;72786;53.546;9.910;2023-11-21T01:02:13;100464.53;;;9.19;94.87
82986;BME280;72786;53.546;9.910;2023-11-21T01:04:39;100526.72;;;9.45;95.30
82986;BME280;72786;53.546;9.910;2023-11-21T01:07:06;100530.97;;;9.45;94.87
82986;BME280;72786;53.546;9.910;2023-11-21T01:09:32;100527.06;;;9.40;95.26
82986;BME280;72786;53.546;9.910;2023-11-21T01:11:59;100435.88;;;8.78;95.07
82986;BME280;72786;53.546;9.910;2023-11-21T01:14:26;100512.91;;;9.16;95.24
82986;BME280;72786;53.546;9.910;2023-11-21T01:16:53;100541.63;;;9.22;95.17
82986;BME280;72786;53.546;9.910;2023-11-21T01:19:20;100537.00;;;9.18;95.63
82986;BME280;72786;53.546;9.910;2023-11-21T01:21:46;100550.13;;;9.21;95.53
82986;BME280;72786;53.546;9.910;2023-11-21T01:24:13;100538.72;;;9.09;94.95
82986;BME280;72786;53.546;9.910;2023-11-21T01:26:39;100568.63;;;9.19;95.53
82986;BME280;72786;53.546;9.910;2023-11-21T01:29:07;100573.63;;;9.17;95.70
82986;BME280;72786;53.546;9.910;2023-11-21T01:31:33;100523.34;;;8.83;95.06
82986;BME280;72786;53.546;9.910;2023-11-21T01:34:00;100515.66;;;8.83;95.73
82986;BME280;72786;53.546;9.910;2023-11-21T01:36:31;100497.38;;;8.70;95.52
82986;BME280;72786;53.546;9.910;2023-11-21T01:38:59;100544.22;;;8.96;95.26
82986;BME280;72786;53.546;9.910;2023-11-21T01:41:26;100530.47;;;8.77;94.84
82986;BME280;72786;53.546;9.910;2023-11-21T01:43:54;100551.94;;;8.87;94.30
82986;BME280;72786;53.546;9.910;2023-11-21T01:46:21;100567.13;;;8.94;94.37
82986;BME280;72786;53.546;9.910;2023-11-21T01:48:49;100587.00;;;8.97;95.26
82986;BME280;72786;53.546;9.910;2023-11-21T01:51:16;100533.19;;;8.70;95.13
82986;BME280;72786;53.546;9.910;2023-11-21T01:53:42;100579.19;;;8.87;94.83
82986;BME280;72786;53.546;9.910;2023-11-21T01:56:12;100563.16;;;8.71;95.75
82986;BME280;72786;53.546;9.910;2023-11-21T01:58:39;100594.53;;;8.87;94.73
82986;BME280;72786;53.546;9.910;2023-11-21T02:01:06;100601.66;;;8.89;94.88
82986;BME280;72786;53.546;9.910;2023-11-21T02:03:32;100487.63;;;8.22;93.50
82986;BME280;72786;53.546;9.910;2023-11-21T02:06:00;100605.91;;;8.72;94.64
82986;BME280;72786;53.546;9.910;2023-11-21T02:08:26;100557.38;;;8.46;94.44
82986;BME280;72786;53.546;9.910;2023-11-21T02:10:53;100565.78;;;8.45;94.44
82986;BME280;72786;53.546;9.910;2023-11-21T02:13:19;100603.38;;;8.63;94.84
82986;BME280;72786;53.546;9.910;2023-11-21T02:15:46;100604.28;;;8.64;93.84
82986;BME280;72786;53.546;9.910;2023-11-21T02:18:13;100556.50;;;8.29;94.25
82986;BME280;72786;53.546;9.910;2023-11-21T02:20:41;100583.75;;;8.37;94.44
82986;BME280;72786;53.546;9.910;2023-11-21T02:23:09;100581.75;;;8.34;93.04
82986;BME280;72786;53.546;9.910;2023-11-21T02:25:35;100565.41;;;8.16;92.74
82986;BME280;72786;53.546;9.910;2023-11-21T02:28:04;100624.81;;;8.38;93.37
82986;BME280;72786;53.546;9.910;2023-11-21T02:30:30;100585.09;;;8.17;93.60
82986;BME280;72786;53.546;9.910;2023-11-21T02:32:59;100645.56;;;8.50;93.64
82986;BME280;72786;53.546;9.910;2023-11-21T02:35:26;100631.56;;;8.38;94.56
82986;BME280;72786;53.546;9.910;2023-11-21T02:37:53;100651.00;;;8.36;94.21
82986;BME280;72786;53.546;9.910;2023-11-21T02:40:21;100651.59;;;8.33;94.34
82986;BME280;72786;53.546;9.910;2023-11-21T02:42:48;100661.81;;;8.42;93.79
82986;BME280;72786;53.546;9.910;2023-11-21T02:45:14;100579.97;;;7.91;92.71
82986;BME280;72786;53.546;9.910;2023-11-21T02:47:44;100635.97;;;8.22;93.30
82986;BME280;72786;53.546;9.910;2023-11-21T02:50:12;100665.41;;;8.35;92.67
82986;BME280;72786;53.546;9.910;2023-11-21T02:52:38;100672.38;;;8.28;92.37
82986;BME280;72786;53.546;9.910;2023-11-21T02:55:06;100645.84;;;8.11;93.24
82986;BME280;72786;53.546;9.910;2023-11-21T02:57:36;100668.75;;;8.18;93.78
82986;BME280;72786;53.546;9.910;2023-11-21T03:00:03;100605.09;;;7.78;93.62
82986;BME280;72786;53.546;9.910;2023-11-21T03:02:30;100640.13;;;7.96;92.76
82986;BME280;72786;53.546;9.910;2023-11-21T03:04:56;100651.53;;;8.00;92.74
82986;BME280;72786;53.546;9.910;2023-11-21T03:07:23;100679.25;;;8.04;93.25
82986;BME280;72786;53.546;9.910;2023-11-21T03:09:50;100657.53;;;7.83;94.45
82986;BME280;72786;53.546;9.910;2023-11-21T03:12:17;100635.28;;;7.65;93.03
82986;BME280;72786;53.546;9.910;2023-11-21T03:14:43;100627.44;;;7.55;94.14
82986;BME280;72786;53.546;9.910;2023-11-21T03:17:10;100668.97;;;7.78;94.69
82986;BME280;72786;53.546;9.910;2023-11-21T03:19:36;100673.75;;;7.75;93.40
82986;BME280;72786;53.546;9.910;2023-11-21T03:22:03;100643.09;;;7.58;93.92
82986;BME280;72786;53.546;9.910;2023-11-21T03:24:30;100691.50;;;7.74;93.17
82986;BME280;72786;53.546;9.910;2023-11-21T03:26:57;100684.88;;;7.67;93.22
82986;BME280;72786;53.546;9.910;2023-11-21T03:29:23;100595.19;;;7.15;93.38
82986;BME280;72786;53.546;9.910;2023-11-21T03:31:50;100708.38;;;7.80;94.64
82986;BME280;72786;53.546;9.910;2023-11-21T03:34:25;100656.69;;;7.42;94.58
82986;BME280;72786;53.546;9.910;2023-11-21T03:36:53;100697.78;;;7.60;94.21
82986;BME280;72786;53.546;9.910;2023-11-21T03:39:20;100728.50;;;7.77;94.73
82986;BME280;72786;53.546;9.910;2023-11-21T03:41:48;100698.53;;;7.59;94.87
82986;BME280;72786;53.546;9.910;2023-11-21T03:44:15;100724.25;;;7.69;94.60
82986;BME280;72786;53.546;9.910;2023-11-21T03:46:41;100617.69;;;7.11;94.89
82986;BME280;72786;53.546;9.910;2023-11-21T03:49:10;100691.31;;;7.55;94.89
82986;BME280;72786;53.546;9.910;2023-11-21T03:51:37;100639.72;;;7.34;93.48
82986;BME280;72786;53.546;9.910;2023-11-21T03:54:04;100692.38;;;7.57;93.66
82986;BME280;72786;53.546;9.910;2023-11-21T03:56:30;100683.03;;;7.49;94.10
82986;BME280;72786;53.546;9.910;2023-11-21T03:58:57;100752.72;;;7.81;94.18
82986;BME280;72786;53.546;9.910;2023-11-21T04:01:24;100639.81;;;7.19;93.69
82986;BME280;72786;53.546;9.910;2023-11-21T04:03:51;100711.47;;;7.61;94.02
82986;BME280;72786;53.546;9.910;2023-11-21T04:06:18;100704.41;;;7.58;94.71
82986;BME280;72786;53.546;9.910;2023-11-21T04:08:45;100748.94;;;7.77;94.46
82986;BME280;72786;53.546;9.910;2023-11-21T04:11:12;100742.91;;;7.68;94.46
82986;BME280;72786;53.546;9.910;2023-11-21T04:13:39;100736.84;;;7.59;94.95
82986;BME280;72786;53.546;9.910;2023-11-21T04:16:07;100786.28;;;7.84;93.81
82986;BME280;72786;53.546;9.910;2023-11-21T04:18:37;100778.88;;;7.78;93.98
82986;BME280;72786;53.546;9.910;2023-11-21T04:21:05;100779.47;;;7.76;92.81
82986;BME280;72786;53.546;9.910;2023-11-21T04:23:32;100756.13;;;7.64;93.36
82986;BME280;72786;53.546;9.910;2023-11-21T04:25:59;100802.81;;;7.87;93.92
82986;BME280;72786;53.546;9.910;2023-11-21T04:28:26;100785.34;;;7.83;93.65
82986;BME280;72786;53.546;9.910;2023-11-21T04:30:52;100791.94;;;7.81;94.27
82986;BME280;72786;53.546;9.910;2023-11-21T04:33:19;100736.56;;;7.56;94.42
82986;BME280;72786;53.546;9.910;2023-11-21T04:35:45;100777.19;;;7.70;92.85
82986;BME280;72786;53.546;9.910;2023-11-21T04:38:12;100818.16;;;7.87;92.82
82986;BME280;72786;53.546;9.910;2023-11-21T04:40:38;100789.50;;;7.74;93.47
82986;BME280;72786;53.546;9.910;2023-11-21T04:43:05;100763.59;;;7.54;93.47
82986;BME280;72786;53.546;9.910;2023-11-21T04:45:32;100739.34;;;7.43;94.53
82986;BME280;72786;53.546;9.910;2023-11-21T04:47:58;100765.53;;;7.57;94.33
82986;BME280;72786;53.546;9.910;2023-11-21T04:50:25;100805.91;;;7.76;94.00
82986;BME280;72786;53.546;9.910;2023-11-21T04:52:55;100781.06;;;7.67;93.26
82986;BME280;72786;53.546;9.910;2023-11-21T04:55:21;100804.84;;;7.74;92.80
82986;BME280;72786;53.546;9.910;2023-11-21T04:57:48;100790.81;;;7.62;93.32
82986;BME280;72786;53.546;9.910;2023-11-21T05:00:14;100787.69;;;7.65;92.95
82986;BME280;72786;53.546;9.910;2023-11-21T05:02:42;100767.22;;;7.56;92.39
82986;BME280;72786;53.546;9.910;2023-11-21T05:05:10;100827.56;;;7.80;92.84
82986;BME280;72786;53.546;9.910;2023-11-21T05:07:37;100837.22;;;7.82;92.97
82986;BME280;72786;53.546;9.910;2023-11-21T05:10:05;100838.59;;;7.87;92.94
82986;BME280;72786;53.546;9.910;2023-11-21T05:12:35;100835.41;;;7.81;93.40
82986;BME280;72786;53.546;9.910;2023-11-21T05:15:05;100830.72;;;7.77;92.97
82986;BME280;72786;53.546;9.910;2023-11-21T05:17:38;100776.81;;;7.50;91.63
82986;BME280;72786;53.546;9.910;2023-11-21T05:20:10;100836.72;;;7.78;92.12
82986;BME280;72786;53.546;9.910;2023-11-21T05:22:37;100791.81;;;7.47;93.05
82986;BME280;72786;53.546;9.910;2023-11-21T05:25:04;100848.41;;;7.67;93.09
82986;BME280;72786;53.546;9.910;2023-11-21T05:27:31;100792.66;;;7.40;91.49
82986;BME280;72786;53.546;9.910;2023-11-21T05:29:57;100873.09;;;7.75;92.39
82986;BME280;72786;53.546;9.910;2023-11-21T05:32:24;100870.41;;;7.74;93.73
82986;BME280;72786;53.546;9.910;2023-11-21T05:34:51;100817.31;;;7.39;93.32
82986;BME280;72786;53.546;9.910;2023-11-21T05:37:18;100834.59;;;7.42;93.53
82986;BME280;72786;53.546;9.910;2023-11-21T05:39:45;100869.41;;;7.56;94.38
82986;BME280;72786;53.546;9.910;2023-11-21T05:42:11;100877.84;;;7.64;94.84
82986;BME280;72786;53.546;9.910;2023-11-21T05:44:41;100854.34;;;7.51;94.22
82986;BME280;72786;53.546;9.910;2023-11-21T05:47:08;100851.09;;;7.37;93.51
82986;BME280;72786;53.546;9.910;2023-11-21T05:49:35;100893.78;;;7.61;93.62
82986;BME280;72786;53.546;9.910;2023-11-21T05:52:02;100880.81;;;7.51;93.48
82986;BME280;72786;53.546;9.910;2023-11-21T05:54:28;100921.19;;;7.71;93.19
82986;BME280;72786;53.546;9.910;2023-11-21T05:56:55;100906.41;;;7.60;93.35
82986;BME280;72786;53.546;9.910;2023-11-21T05:59:22;100843.34;;;7.28;93.70
82986;BME280;72786;53.546;9.910;2023-11-21T06:01:49;100814.84;;;7.08;93.57
82986;BME280;72786;53.546;9.910;2023-11-21T06:04:16;100860.50;;;7.29;93.96
82986;BME280;72786;53.546;9.910;2023-11-21T06:06:42;100912.41;;;7.60;93.66
82986;BME280;72786;53.546;9.910;2023-11-21T06:09:09;100936.69;;;7.72;94.55
82986;BME280;72786;53.546;9.910;2023-11-21T06:11:35;100910.56;;;7.59;94.36
82986;BME280;72786;53.546;9.910;2023-11-21T06:14:02;100895.00;;;7.41;93.58
82986;BME280;72786;53.546;9.910;2023-11-21T06:16:29;100885.44;;;7.32;94.09
82986;BME280;72786;53.546;9.910;2023-11-21T06:18:55;100912.94;;;7.49;93.98
82986;BME280;72786;53.546;9.910;2023-11-21T06:21:22;100915.78;;;7.52;94.18
82986;BME280;72786;53.546;9.910;2023-11-21T06:23:48;100932.09;;;7.61;93.29
82986;BME280;72786;53.546;9.910;2023-11-21T06:26:19;100889.06;;;7.34;93.46
82986;BME280;72786;53.546;9.910;2023-11-21T06:28:46;100927.19;;;7.47;95.15
82986;BME280;72786;53.546;9.910;2023-11-21T06:31:13;100870.31;;;7.18;94.27
82986;BME280;72786;53.546;9.910;2023-11-21T06:33:40;100871.09;;;7.17;94.25
82986;BME280;72786;53.546;9.910;2023-11-21T06:36:08;100991.91;;;7.79;93.41
82986;BME280;72786;53.546;9.910;2023-11-21T06:38:34;100872.47;;;7.22;92.33
82986;BME280;72786;53.546;9.910;2023-11-21T06:41:01;100966.72;;;7.66;93.22
82986;BME280;72786;53.546;9.910;2023-11-21T06:43:30;100969.72;;;7.71;93.12
82986;BME280;72786;53.546;9.910;2023-11-21T06:45:57;100868.22;;;7.14;93.45
82986;BME280;72786;53.546;9.910;2023-11-21T06:48:25;100925.16;;;7.37;93.17
82986;BME280;72786;53.546;9.910;2023-11-21T06:50:51;100939.06;;;7.47;92.95
82986;BME280;72786;53.546;9.910;2023-11-21T06:53:18;101015.63;;;7.78;92.07
82986;BME280;72786;53.546;9.910;2023-11-21T06:55:45;100974.44;;;7.59;92.17
82986;BME280;72786;53.546;9.910;2023-11-21T06:58:12;100990.88;;;7.61;92.49
82986;BME280;72786;53.546;9.910;2023-11-21T07:00:40;101023.16;;;7.76;93.36
82986;BME280;72786;53.546;9.910;2023-11-21T07:03:07;100973.16;;;7.47;92.42
82986;BME280;72786;53.546;9.910;2023-11-21T07:05:34;100976.38;;;7.53;92.19
82986;BME280;72786;53.546;9.910;2023-11-21T07:08:00;100948.06;;;7.44;93.07
82986;BME280;72786;53.546;9.910;2023-11-21T07:10:30;100958.91;;;7.49;92.97
82986;BME280;72786;53.546;9.910;2023-11-21T07:12:57;100973.06;;;7.54;93.05
82986;BME280;72786;53.546;9.910;2023-11-21T07:15:24;100957.94;;;7.41;92.31
82986;BME280;72786;53.546;9.910;2023-11-21T07:17:52;101046.06;;;7.83;92.07
82986;BME280;72786;53.546;9.910;2023-11-21T07:20:20;100966.03;;;7.37;93.28
82986;BME280;72786;53.546;9.910;2023-11-21T07:22:47;101057.03;;;7.82;93.79
82986;BME280;72786;53.546;9.910;2023-11-21T07:25:14;101064.78;;;7.91;93.57
82986;BME280;72786;53.546;9.910;2023-11-21T07:27:40;101065.53;;;7.90;91.91
82986;BME280;72786;53.546;9.910;2023-11-21T07:30:08;100984.88;;;7.46;91.54
82986;BME280;72786;53.546;9.910;2023-11-21T07:32:36;101078.03;;;7.95;90.04
82986;BME280;72786;53.546;9.910;2023-11-21T07:35:04;101068.66;;;7.87;90.81
82986;BME280;72786;53.546;9.910;2023-11-21T07:37:30;101030.28;;;7.63;90.51
82986;BME280;72786;53.546;9.910;2023-11-21T07:39:57;100994.94;;;7.44;92.30
82986;BME280;72786;53.546;9.910;2023-11-21T07:42:23;101074.91;;;7.82;91.22
82986;BME280;72786;53.546;9.910;2023-11-21T07:44:52;101095.75;;;7.94;93.07
82986;BME280;72786;53.546;9.910;2023-11-21T07:47:19;101033.81;;;7.57;92.64
82986;BME280;72786;53.546;9.910;2023-11-21T07:49:45;101059.53;;;7.74;92.62
82986;BME280;72786;53.546;9.910;2023-11-21T07:52:13;101036.63;;;7.67;91.84
82986;BME280;72786;53.546;9.910;2023-11-21T07:54:42;101073.94;;;7.89;90.88
82986;BME280;72786;53.546;9.910;2023-11-21T07:57:09;101041.88;;;7.68;91.05
82986;BME280;72786;53.546;9.910;2023-11-21T07:59:40;101105.50;;;8.05;90.33
82986;BME280;72786;53.546;9.910;2023-11-21T08:02:07;101089.75;;;7.93;91.13
82986;BME280;72786;53.546;9.910;2023-11-21T08:04:34;101004.31;;;7.52;91.11
82986;BME280;72786;53.546;9.910;2023-11-21T08:07:02;101093.94;;;7.93;90.43
82986;BME280;72786;53.546;9.910;2023-11-21T08:09:36;101068.91;;;7.82;91.25
82986;BME280;72786;53.546;9.910;2023-11-21T08:12:03;101044.19;;;7.74;91.80
82986;BME280;72786;53.546;9.910;2023-11-21T08:14:31;101035.88;;;7.68;90.70
82986;BME280;72786;53.546;9.910;2023-11-21T08:16:57;101108.94;;;8.05;92.00
82986;BME280;72786;53.546;9.910;2023-11-21T08:19:24;101098.81;;;7.98;92.43
82986;BME280;72786;53.546;9.910;2023-11-21T08:21:54;101126.34;;;8.16;91.51
82986;BME280;72786;53.546;9.910;2023-11-21T08:24:21;101081.00;;;7.91;91.09
82986;BME280;72786;53.546;9.910;2023-11-21T08:26:48;101086.13;;;7.91;90.13
82986;BME280;72786;53.546;9.910;2023-11-21T08:29:14;101093.69;;;7.98;89.21
82986;BME280;72786;53.546;9.910;2023-11-21T08:31:41;101140.22;;;8.18;89.08
82986;BME280;72786;53.546;9.910;2023-11-21T08:34:07;101081.91;;;7.92;88.79
82986;BME280;72786;53.546;9.910;2023-11-21T08:36:35;101094.03;;;8.01;88.48
82986;BME280;72786;53.546;9.910;2023-11-21T08:39:01;101088.59;;;7.98;89.51
82986;BME280;72786;53.546;9.910;2023-11-21T08:41:28;101143.03;;;8.28;90.62
82986;BME280;72786;53.546;9.910;2023-11-21T08:43:54;101068.06;;;7.90;88.28
82986;BME280;72786;53.546;9.910;2023-11-21T08:46:21;101171.06;;;8.35;88.10
82986;BME280;72786;53.546;9.910;2023-11-21T08:48:49;101144.25;;;8.16;88.46
82986;BME280;72786;53.546;9.910;2023-11-21T08:51:18;101158.03;;;8.25;89.90
82986;BME280;72786;53.546;9.910;2023-11-21T08:53:45;101174.59;;;8.28;88.36
82986;BME280;72786;53.546;9.910;2023-11-21T08:56:14;101170.66;;;8.24;88.30
82986;BME280;72786;53.546;9.910;2023-11-21T08:58:41;101195.16;;;8.22;89.83
82986;BME280;72786;53.546;9.910;2023-11-21T09:01:08;101186.25;;;8.18;89.15
82986;BME280;72786;53.546;9.910;2023-11-21T09:03:34;101192.44;;;8.20;85.66
82986;BME280;72786;53.546;9.910;2023-11-21T09:06:01;101192.13;;;8.17;86.80
82986;BME280;72786;53.546;9.910;2023-11-21T09:08:27;101121.19;;;7.77;88.14
82986;BME280;72786;53.546;9.910;2023-11-21T09:10:55;101213.66;;;8.19;86.56
82986;BME280;72786;53.546;9.910;2023-11-21T09:13:22;101152.53;;;7.83;88.07
82986;BME280;72786;53.546;9.910;2023-11-21T09:15:51;101176.34;;;7.90;90.05
82986;BME280;72786;53.546;9.910;2023-11-21T09:18:18;101193.00;;;8.02;89.59
82986;BME280;72786;53.546;9.910;2023-11-21T09:20:44;101164.97;;;7.80;89.78
82986;BME280;72786;53.546;9.910;2023-11-21T09:23:10;101197.22;;;8.02;89.58
82986;BME280;72786;53.546;9.910;2023-11-21T09:25:37;101222.06;;;8.18;90.14
82986;BME280;72786;53.546;9.910;2023-11-21T09:28:05;101242.63;;;8.27;90.05
82986;BME280;72786;53.546;9.910;2023-11-21T09:30:34;101195.81;;;8.12;89.15
82986;BME280;72786;53.546;9.910;2023-11-21T09:33:02;101225.88;;;8.37;88.93
82986;BME280;72786;53.546;9.910;2023-11-21T09:35:28;101195.50;;;8.25;89.24
82986;BME280;72786;53.546;9.910;2023-11-21T09:37:55;101235.34;;;8.53;88.06
82986;BME280;72786;53.546;9.910;2023-11-21T09:40:22;101214.13;;;8.39;86.97
82986;BME280;72786;53.546;9.910;2023-11-21T09:42:54;101205.31;;;8.28;89.19
82986;BME280;72786;53.546;9.910;2023-11-21T09:45:25;101238.16;;;8.48;87.54
82986;BME280;72786;53.546;9.910;2023-11-21T09:47:53;101218.28;;;8.30;87.74
82986;BME280;72786;53.546;9.910;2023-11-21T09:50:22;101267.69;;;8.53;89.01
82986;BME280;72786;53.546;9.910;2023-11-21T09:52:54;101270.25;;;8.53;88.43
82986;BME280;72786;53.546;9.910;2023-11-21T09:55:22;101262.34;;;8.43;89.55
82986;BME280;72786;53.546;9.910;2023-11-21T09:57:53;101265.63;;;8.42;89.37
82986;BME280;72786;53.546;9.910;2023-11-21T10:00:20;101266.72;;;8.44;88.73
82986;BME280;72786;53.546;9.910;2023-11-21T10:02:50;101247.66;;;8.33;88.21
82986;BME280;72786;53.546;9.910;2023-11-21T10:05:19;101277.25;;;8.47;87.85
82986;BME280;72786;53.546;9.910;2023-11-21T10:07:46;101272.56;;;8.43;88.59
82986;BME280;72786;53.546;9.910;2023-11-21T10:10:15;101244.34;;;8.34;88.10
82986;BME280;72786;53.546;9.910;2023-11-21T10:12:49;101238.16;;;8.32;87.69
82986;BME280;72786;53.546;9.910;2023-11-21T10:15:22;101287.66;;;8.64;86.63
82986;BME280;72786;53.546;9.910;2023-11-21T10:17:49;101268.31;;;8.59;86.15
82986;BME280;72786;53.546;9.910;2023-11-21T10:20:16;101237.88;;;8.38;87.36
82986;BME280;72786;53.546;9.910;2023-11-21T10:22:43;101244.66;;;8.53;85.22
82986;BME280;72786;53.546;9.910;2023-11-21T10:25:11;101240.16;;;8.59;87.50
82986;BME280;72786;53.546;9.910;2023-11-21T10:27:41;101289.50;;;8.89;87.49
82986;BME280;72786;53.546;9.910;2023-11-21T10:30:09;101267.88;;;8.78;85.78
82986;BME280;72786;53.546;9.910;2023-11-21T10:32:38;101269.88;;;8.81;85.10
82986;BME280;72786;53.546;9.910;2023-11-21T10:35:07;101305.22;;;8.92;86.26
82986;BME280;72786;53.546;9.910;2023-11-21T10:37:37;101262.28;;;8.74;86.06
82986;BME280;72786;53.546;9.910;2023-11-21T10:40:09;101312.81;;;8.99;85.40
82986;BME280;72786;53.546;9.910;2023-11-21T10:42:39;101277.25;;;8.78;85.81
82986;BME280;72786;53.546;9.910;2023-11-21T10:45:07;101319.16;;;9.02;84.36
82986;BME280;72786;53.546;9.910;2023-11-21T10:47:41;101228.41;;;8.52;85.25
82986;BME280;72786;53.546;9.910;2023-11-21T10:50:07;101314.28;;;8.97;84.18
82986;BME280;72786;53.546;9.910;2023-11-21T10:52:39;101300.84;;;8.91;85.75
82986;BME280;72786;53.546;9.910;2023-11-21T10:55:21;101311.56;;;8.95;84.82
82986;BME280;72786;53.546;9.910;2023-11-21T10:57:52;101276.59;;;8.72;85.35
82986;BME280;72786;53.546;9.910;2023-11-21T11:00:20;101329.16;;;9.07;84.02
82986;BME280;72786;53.546;9.910;2023-11-21T11:02:52;101222.06;;;8.49;84.09
82986;BME280;72786;53.546;9.910;2023-11-21T11:05:22;101324.88;;;9.00;83.60
82986;BME280;72786;53.546;9.910;2023-11-21T11:07:51;101288.31;;;8.70;84.75
82986;BME280;72786;53.546;9.910;2023-11-21T11:10:21;101322.16;;;8.83;83.78
82986;BME280;72786;53.546;9.910;2023-11-21T11:12:49;101337.41;;;8.90;83.74
82986;BME280;72786;53.546;9.910;2023-11-21T11:15:16;101268.19;;;8.57;83.20
82986;BME280;72786;53.546;9.910;2023-11-21T11:17:44;101281.47;;;8.62;84.41
82986;BME280;72786;53.546;9.910;2023-11-21T11:20:14;101290.47;;;8.58;86.02
82986;BME280;72786;53.546;9.910;2023-11-21T11:22:50;101246.59;;;8.31;82.27
82986;BME280;72786;53.546;9.910;2023-11-21T11:29:40;101335.19;;;8.77;83.19
82986;BME280;72786;53.546;9.910;2023-11-21T11:34:48;101329.50;;;8.80;81.53
82986;BME280;72786;53.546;9.910;2023-11-21T11:37:20;101269.75;;;8.48;83.98
82986;BME280;72786;53.546;9.910;2023-11-21T11:39:49;101295.00;;;8.61;81.47
82986;BME280;72786;53.546;9.910;2023-11-21T11:42:17;101333.78;;;8.88;81.21
82986;BME280;72786;53.546;9.910;2023-11-21T11:47:29;101333.78;;;8.88;81.90
82986;BME280;72786;53.546;9.910;2023-11-21T11:50:01;101356.00;;;8.96;82.85
82986;BME280;72786;53.546;9.910;2023-11-21T11:52:44;101336.25;;;8.95;81.50
82986;BME280;72786;53.546;9.910;2023-11-21T11:55:15;101349.63;;;9.07;83.44
82986;BME280;72786;53.546;9.910;2023-11-21T11:57:54;101343.44;;;9.05;80.60
82986;BME280;72786;53.546;9.910;2023-11-21T12:03:02;101352.34;;;9.09;79.49
82986;BME280;72786;53.546;9.910;2023-11-21T12:05:34;101257.03;;;8.57;82.72
82986;BME280;72786;53.546;9.910;2023-11-21T12:08:06;101294.97;;;8.76;80.49
82986;BME280;72786;53.546;9.910;2023-11-21T12:10:35;101356.25;;;9.05;78.42
82986;BME280;72786;53.546;9.910;2023-11-21T12:13:08;101329.25;;;8.85;79.00
82986;BME280;72786;53.546;9.910;2023-11-21T12:15:36;101278.41;;;8.57;79.38
82986;BME280;72786;53.546;9.910;2023-11-21T12:18:04;101370.63;;;8.97;83.07
82986;BME280;72786;53.546;9.910;2023-11-21T12:20:31;101329.19;;;8.77;80.19
82986;BME280;72786;53.546;9.910;2023-11-21T12:22:59;101304.34;;;8.45;81.57
82986;BME280;72786;53.546;9.910;2023-11-21T12:25:28;101381.88;;;8.75;78.92
82986;BME280;72786;53.546;9.910;2023-11-21T12:28:03;101317.28;;;8.31;83.38
82986;BME280;72786;53.546;9.910;2023-11-21T12:30:31;101372.38;;;8.43;80.80
82986;BME280;72786;53.546;9.910;2023-11-21T12:32:59;101401.25;;;8.57;79.01
82986;BME280;72786;53.546;9.910;2023-11-21T12:35:28;101396.28;;;8.43;81.71
82986;BME280;72786;53.546;9.910;2023-11-21T12:37:55;101418.94;;;8.47;82.55
82986;BME280;72786;53.546;9.910;2023-11-21T12:40:23;101371.88;;;8.16;81.36
82986;BME280;72786;53.546;9.910;2023-11-21T12:42:52;101412.72;;;8.30;81.96
82986;BME280;72786;53.546;9.910;2023-11-21T12:45:23;101412.28;;;8.19;82.08
82986;BME280;72786;53.546;9.910;2023-11-21T12:47:57;101414.81;;;8.19;84.70
82986;BME280;72786;53.546;9.910;2023-11-21T12:50:30;101368.38;;;8.00;82.93
82986;BME280;72786;53.546;9.910;2023-11-21T12:53:00;101428.50;;;8.19;84.66
82986;BME280;72786;53.546;9.910;2023-11-21T12:55:30;101423.84;;;8.08;84.10
82986;BME280;72786;53.546;9.910;2023-11-21T12:57:57;101396.63;;;7.86;85.36
82986;BME280;72786;53.546;9.910;2023-11-21T13:00:35;101393.38;;;7.80;85.33
82986;BME280;72786;53.546;9.910;2023-11-21T13:03:08;101438.47;;;8.02;84.37
82986;BME280;72786;53.546;9.910;2023-11-21T13:05:37;101452.34;;;8.04;85.17
82986;BME280;72786;53.546;9.910;2023-11-21T13:08:09;101461.31;;;8.01;85.64
82986;BME280;72786;53.546;9.910;2023-11-21T13:10:43;101455.31;;;8.00;85.31
82986;BME280;72786;53.546;9.910;2023-11-21T13:13:11;101451.34;;;7.88;86.51
82986;BME280;72786;53.546;9.910;2023-11-21T13:15:54;101456.41;;;7.95;87.51